Time;durP1;ratioP1;P1;durP2;ratioP2;P2;SDS_P1;SDS_P2;PMS_P1;PMS_P2;Temp;Humidity;BMP_temperature;BMP_pressure;BME280_temperature;BME280_humidity;BME280_pressure;Samples;Min_cycle;Max_cycle;Signal;HPM_P1;HPM_P2
2022/10/31 00:01:19;;;;;;;17.70;5.32;;;;;;;;;;5083175;28;20044;-77
2022/10/31 00:03:45;;;;;;;13.18;4.63;;;;;;;;;;5077554;28;20515;-77
2022/10/31 00:06:11;;;;;;;9.73;4.00;;;;;;;;;;5083575;28;20052;-77
2022/10/31 00:08:37;;;;;;;16.90;4.63;;;;;;;;;;5077171;28;20024;-77
2022/10/31 00:11:03;;;;;;;7.85;3.58;;;;;;;;;;5086846;28;20028;-77
2022/10/31 00:13:29;;;;;;;12.48;3.95;;;;;;;;;;5094925;28;20461;-77
2022/10/31 00:15:55;;;;;;;13.35;5.20;;;;;;;;;;5090338;28;20036;-77
2022/10/31 00:18:21;;;;;;;11.82;4.55;;;;;;;;;;5086192;28;20029;-77
2022/10/31 00:20:47;;;;;;;13.60;4.03;;;;;;;;;;5088124;28;20106;-76
2022/10/31 00:23:13;;;;;;;16.02;4.85;;;;;;;;;;5084669;28;20031;-77
2022/10/31 00:25:40;;;;;;;13.27;4.78;;;;;;;;;;5087354;28;20099;-77
2022/10/31 00:28:07;;;;;;;13.73;4.97;;;;;;;;;;5083609;28;20103;-77
2022/10/31 00:30:33;;;;;;;12.55;4.38;;;;;;;;;;5089103;28;20085;-77
2022/10/31 00:32:59;;;;;;;11.20;4.13;;;;;;;;;;5075018;28;20024;-77
2022/10/31 00:35:25;;;;;;;9.60;4.25;;;;;;;;;;5087487;28;20031;-77
2022/10/31 00:37:52;;;;;;;13.98;4.90;;;;;;;;;;5076183;28;20021;-77
2022/10/31 00:40:18;;;;;;;10.88;3.22;;;;;;;;;;5079706;28;20041;-76
2022/10/31 00:42:44;;;;;;;12.90;3.90;;;;;;;;;;5094268;28;20024;-77
2022/10/31 00:45:11;;;;;;;9.23;2.97;;;;;;;;;;5092213;28;20036;-77
2022/10/31 00:47:37;;;;;;;11.18;3.47;;;;;;;;;;5076288;28;20017;-77
2022/10/31 00:50:04;;;;;;;10.55;3.70;;;;;;;;;;5083168;28;20058;-77
2022/10/31 00:52:30;;;;;;;11.18;3.30;;;;;;;;;;5077186;28;20025;-76
2022/10/31 00:54:56;;;;;;;13.25;3.45;;;;;;;;;;5074855;28;20078;-77
2022/10/31 00:57:22;;;;;;;11.48;3.78;;;;;;;;;;5092492;28;20039;-77
2022/10/31 00:59:48;;;;;;;16.23;3.65;;;;;;;;;;5083280;28;20040;-77
2022/10/31 01:02:14;;;;;;;9.77;3.78;;;;;;;;;;5077919;28;20495;-76
2022/10/31 01:04:40;;;;;;;9.75;3.47;;;;;;;;;;5074348;28;20032;-77
2022/10/31 01:07:06;;;;;;;15.70;4.18;;;;;;;;;;5078252;28;20067;-77
2022/10/31 01:09:33;;;;;;;16.25;4.85;;;;;;;;;;5073783;28;20033;-76
2022/10/31 01:11:59;;;;;;;10.40;3.60;;;;;;;;;;5089490;28;20038;-77
2022/10/31 01:14:25;;;;;;;13.65;3.75;;;;;;;;;;5092340;28;20025;-77
2022/10/31 01:16:51;;;;;;;13.02;3.55;;;;;;;;;;5088840;28;20567;-77
2022/10/31 01:19:16;;;;;;;8.68;3.22;;;;;;;;;;5093814;28;20032;-77
2022/10/31 01:21:42;;;;;;;12.68;3.75;;;;;;;;;;5081788;28;20035;-76
2022/10/31 01:24:08;;;;;;;17.15;3.90;;;;;;;;;;5073809;28;20032;-77
2022/10/31 01:26:34;;;;;;;12.07;3.30;;;;;;;;;;5076895;28;20087;-77
2022/10/31 01:29:02;;;;;;;12.20;3.70;;;;;;;;;;5076559;28;20122;-77
2022/10/31 01:31:29;;;;;;;11.38;3.20;;;;;;;;;;5082916;28;20398;-76
2022/10/31 01:33:55;;;;;;;11.77;3.38;;;;;;;;;;5075672;28;20469;-76
2022/10/31 01:36:22;;;;;;;12.07;3.85;;;;;;;;;;5077890;28;20103;-77
2022/10/31 01:38:49;;;;;;;12.73;3.83;;;;;;;;;;5074763;28;20073;-76
2022/10/31 01:41:17;;;;;;;14.27;2.97;;;;;;;;;;5082651;28;20037;-77
2022/10/31 01:43:44;;;;;;;13.80;2.78;;;;;;;;;;5087384;28;20396;-77
2022/10/31 01:46:11;;;;;;;10.15;2.33;;;;;;;;;;5079688;28;20078;-76
2022/10/31 01:48:37;;;;;;;12.48;3.30;;;;;;;;;;5081526;28;20020;-76
2022/10/31 01:51:04;;;;;;;14.50;3.72;;;;;;;;;;5078110;28;20492;-77
2022/10/31 01:53:31;;;;;;;10.25;2.88;;;;;;;;;;5080577;28;20029;-77
2022/10/31 01:55:57;;;;;;;11.65;2.78;;;;;;;;;;5084038;28;20036;-77
2022/10/31 01:58:25;;;;;;;10.52;3.08;;;;;;;;;;5083571;28;20033;-77
2022/10/31 02:00:54;;;;;;;11.48;2.78;;;;;;;;;;5086490;28;20028;-77
2022/10/31 02:03:20;;;;;;;14.50;3.35;;;;;;;;;;5087818;28;20036;-77
2022/10/31 02:05:47;;;;;;;10.35;2.88;;;;;;;;;;5081448;28;20464;-76
2022/10/31 02:08:14;;;;;;;13.43;3.38;;;;;;;;;;5091535;28;20020;-77
2022/10/31 02:10:40;;;;;;;11.23;2.90;;;;;;;;;;5074136;28;20684;-77
2022/10/31 02:13:07;;;;;;;12.43;3.47;;;;;;;;;;5093424;28;20024;-77
2022/10/31 02:15:35;;;;;;;11.07;2.85;;;;;;;;;;5076628;28;20623;-77
2022/10/31 02:18:01;;;;;;;10.38;3.08;;;;;;;;;;5074605;28;20503;-77
2022/10/31 02:20:33;;;;;;;10.15;2.75;;;;;;;;;;5083574;28;20063;-77
2022/10/31 02:23:10;;;;;;;8.93;2.97;;;;;;;;;;5077787;28;20028;-76
2022/10/31 02:25:36;;;;;;;11.23;3.20;;;;;;;;;;5076346;28;20056;-77
2022/10/31 02:28:05;;;;;;;11.02;2.80;;;;;;;;;;5084950;28;20255;-77
2022/10/31 02:30:49;;;;;;;14.13;2.85;;;;;;;;;;5073191;28;20033;-76
2022/10/31 02:33:23;;;;;;;7.30;2.30;;;;;;;;;;5086100;28;20039;-77
2022/10/31 02:35:49;;;;;;;11.15;2.75;;;;;;;;;;5073644;28;20032;-77
2022/10/31 02:38:23;;;;;;;12.43;3.70;;;;;;;;;;5072369;28;20078;-76
2022/10/31 02:40:53;;;;;;;9.40;3.20;;;;;;;;;;5072839;28;20032;-77
2022/10/31 02:43:22;;;;;;;12.65;3.17;;;;;;;;;;5081061;28;20040;-77
2022/10/31 02:45:54;;;;;;;8.27;3.00;;;;;;;;;;5090826;28;20085;-77
2022/10/31 02:48:21;;;;;;;13.85;3.63;;;;;;;;;;5083503;28;20024;-77
2022/10/31 02:50:53;;;;;;;9.80;3.30;;;;;;;;;;5080701;28;20782;-77
2022/10/31 02:53:19;;;;;;;15.00;3.97;;;;;;;;;;5076246;28;20640;-76
2022/10/31 02:55:47;;;;;;;14.05;3.83;;;;;;;;;;5073760;28;20135;-77
2022/10/31 02:58:19;;;;;;;10.57;3.72;;;;;;;;;;5079348;28;20028;-76
2022/10/31 03:00:57;;;;;;;11.77;3.45;;;;;;;;;;5072033;28;20081;-77
2022/10/31 03:03:30;;;;;;;10.50;2.92;;;;;;;;;;5077790;28;20024;-77
2022/10/31 03:06:22;;;;;;;10.18;3.30;;;;;;;;;;5090375;28;20043;-76
2022/10/31 03:08:55;;;;;;;11.75;2.83;;;;;;;;;;5048629;28;20040;-76
2022/10/31 03:11:23;;;;;;;8.05;3.33;;;;;;;;;;5088037;28;20028;-76
2022/10/31 03:13:58;;;;;;;11.75;2.72;;;;;;;;;;5071487;28;20028;-77
2022/10/31 03:16:30;;;;;;;9.00;3.40;;;;;;;;;;5080501;28;20036;-77
2022/10/31 03:19:02;;;;;;;16.15;2.90;;;;;;;;;;5083787;28;20032;-77
2022/10/31 03:21:31;;;;;;;11.27;2.80;;;;;;;;;;5074337;28;20123;-76
2022/10/31 03:23:57;;;;;;;10.15;3.08;;;;;;;;;;5076323;28;20085;-76
2022/10/31 03:26:24;;;;;;;12.27;4.28;;;;;;;;;;5083891;28;20074;-77
2022/10/31 03:28:53;;;;;;;12.23;3.53;;;;;;;;;;5082838;28;20096;-77
2022/10/31 03:31:23;;;;;;;8.75;2.78;;;;;;;;;;5086354;28;20036;-76
2022/10/31 03:33:50;;;;;;;13.35;3.30;;;;;;;;;;5071436;28;20035;-76
2022/10/31 03:36:16;;;;;;;11.10;3.17;;;;;;;;;;5078590;28;20067;-75
2022/10/31 03:38:44;;;;;;;8.95;3.30;;;;;;;;;;5082262;28;20028;-78
2022/10/31 03:41:16;;;;;;;9.25;2.95;;;;;;;;;;5071879;28;20438;-77
2022/10/31 03:43:46;;;;;;;11.40;3.38;;;;;;;;;;5082739;28;20032;-77
2022/10/31 03:46:12;;;;;;;10.43;3.25;;;;;;;;;;5087526;28;20428;-78
2022/10/31 03:48:39;;;;;;;11.55;3.78;;;;;;;;;;5081619;28;20032;-78
2022/10/31 03:51:15;;;;;;;10.52;3.50;;;;;;;;;;5090272;28;20141;-77
2022/10/31 03:53:45;;;;;;;12.90;4.22;;;;;;;;;;5083850;28;20023;-77
2022/10/31 03:56:20;;;;;;;9.30;3.53;;;;;;;;;;5095130;28;20036;-78
2022/10/31 03:58:49;;;;;;;15.25;4.30;;;;;;;;;;5086767;28;20037;-77
2022/10/31 04:01:17;;;;;;;12.57;3.88;;;;;;;;;;5096123;28;20039;-77
2022/10/31 04:03:44;;;;;;;11.80;3.70;;;;;;;;;;5085692;28;20470;-77
2022/10/31 04:06:13;;;;;;;7.88;3.08;;;;;;;;;;5074924;28;20036;-78
2022/10/31 04:08:42;;;;;;;15.68;4.22;;;;;;;;;;5086371;28;20043;-77
2022/10/31 04:11:10;;;;;;;13.25;3.50;;;;;;;;;;5086909;28;20044;-78
2022/10/31 04:13:37;;;;;;;12.20;4.22;;;;;;;;;;5075032;28;20035;-77
2022/10/31 04:16:04;;;;;;;11.93;3.90;;;;;;;;;;5091628;28;20040;-77
2022/10/31 04:18:30;;;;;;;14.68;3.17;;;;;;;;;;5091701;28;20362;-78
2022/10/31 04:21:03;;;;;;;13.05;3.40;;;;;;;;;;5090271;28;20058;-77
2022/10/31 04:23:30;;;;;;;11.50;4.45;;;;;;;;;;5077403;28;20067;-77
2022/10/31 04:25:56;;;;;;;15.15;4.10;;;;;;;;;;5079548;28;20095;-78
2022/10/31 04:28:22;;;;;;;12.38;4.25;;;;;;;;;;5078133;28;20031;-78
2022/10/31 04:30:48;;;;;;;14.23;4.40;;;;;;;;;;5093178;28;20040;-78
2022/10/31 04:33:14;;;;;;;15.00;3.42;;;;;;;;;;5078954;28;20036;-78
2022/10/31 04:35:40;;;;;;;8.82;3.35;;;;;;;;;;5083052;28;20029;-77
2022/10/31 04:38:06;;;;;;;11.70;4.13;;;;;;;;;;5078806;28;20107;-77
2022/10/31 04:40:32;;;;;;;12.80;3.72;;;;;;;;;;5075311;28;20107;-77
2022/10/31 04:42:58;;;;;;;12.90;3.25;;;;;;;;;;5074695;28;20028;-77
2022/10/31 04:45:24;;;;;;;15.13;3.63;;;;;;;;;;5083514;28;20487;-77
2022/10/31 04:47:50;;;;;;;15.65;3.70;;;;;;;;;;5091284;28;20073;-78
2022/10/31 04:50:16;;;;;;;15.35;3.63;;;;;;;;;;5085168;28;20029;-77
2022/10/31 04:52:43;;;;;;;12.30;4.30;;;;;;;;;;5075340;28;20064;-77
2022/10/31 04:55:10;;;;;;;11.63;3.75;;;;;;;;;;5073622;28;20473;-78
2022/10/31 04:57:45;;;;;;;15.35;4.00;;;;;;;;;;5075577;28;20028;-78
2022/10/31 05:00:12;;;;;;;12.63;4.45;;;;;;;;;;5078854;28;20063;-78
2022/10/31 05:02:48;;;;;;;15.65;5.10;;;;;;;;;;5085903;28;20036;-77
2022/10/31 05:05:15;;;;;;;16.85;4.00;;;;;;;;;;5085821;28;20032;-78
2022/10/31 05:07:42;;;;;;;11.00;3.33;;;;;;;;;;5084217;28;20032;-77
2022/10/31 05:10:09;;;;;;;14.38;4.05;;;;;;;;;;5077547;28;20032;-78
2022/10/31 05:12:35;;;;;;;11.07;3.58;;;;;;;;;;5088282;28;20028;-77
2022/10/31 05:15:01;;;;;;;13.60;3.97;;;;;;;;;;5092563;28;20060;-78
2022/10/31 05:17:27;;;;;;;12.32;4.32;;;;;;;;;;5089627;28;20059;-77
2022/10/31 05:19:53;;;;;;;13.23;4.20;;;;;;;;;;5073572;28;20044;-77
2022/10/31 05:22:19;;;;;;;14.95;3.05;;;;;;;;;;5082549;28;20032;-78
2022/10/31 05:24:45;;;;;;;13.25;3.75;;;;;;;;;;5088420;28;20037;-77
2022/10/31 05:27:11;;;;;;;13.18;3.63;;;;;;;;;;5078991;28;20029;-77
2022/10/31 05:29:37;;;;;;;12.88;3.70;;;;;;;;;;5080807;28;20032;-78
2022/10/31 05:32:03;;;;;;;12.60;3.85;;;;;;;;;;5084547;28;20032;-77
2022/10/31 05:34:29;;;;;;;16.50;4.53;;;;;;;;;;5073509;28;20024;-77
2022/10/31 05:36:55;;;;;;;12.10;3.67;;;;;;;;;;5073506;28;20047;-77
2022/10/31 05:39:21;;;;;;;14.10;4.03;;;;;;;;;;5074120;28;20213;-77
2022/10/31 05:41:47;;;;;;;14.95;3.83;;;;;;;;;;5080167;28;20039;-77
2022/10/31 05:44:13;;;;;;;18.17;4.03;;;;;;;;;;5077549;28;20024;-77
2022/10/31 05:46:39;;;;;;;16.13;3.63;;;;;;;;;;5072008;28;20051;-77
2022/10/31 05:49:05;;;;;;;15.75;4.00;;;;;;;;;;5081504;28;20398;-77
2022/10/31 05:51:31;;;;;;;17.40;4.05;;;;;;;;;;5092442;28;20043;-77
2022/10/31 05:53:57;;;;;;;12.27;3.47;;;;;;;;;;5084475;28;20024;-77
2022/10/31 05:56:23;;;;;;;11.90;3.30;;;;;;;;;;5087740;28;20068;-78
2022/10/31 05:58:49;;;;;;;15.55;5.07;;;;;;;;;;5081212;28;20028;-77
2022/10/31 06:01:15;;;;;;;16.17;4.55;;;;;;;;;;5073889;28;20037;-77
2022/10/31 06:03:41;;;;;;;25.00;4.63;;;;;;;;;;5080793;28;20024;-77
2022/10/31 06:06:07;;;;;;;12.90;4.43;;;;;;;;;;5076762;28;20032;-77
2022/10/31 06:08:33;;;;;;;14.40;4.15;;;;;;;;;;5093373;28;20028;-77
2022/10/31 06:10:59;;;;;;;20.35;4.53;;;;;;;;;;5079334;28;20077;-77
2022/10/31 06:13:25;;;;;;;12.10;3.85;;;;;;;;;;5088640;28;20032;-77
2022/10/31 06:15:51;;;;;;;10.50;4.43;;;;;;;;;;5073646;28;20033;-77
2022/10/31 06:18:17;;;;;;;15.77;5.00;;;;;;;;;;5087075;28;20020;-77
2022/10/31 06:20:43;;;;;;;10.85;4.50;;;;;;;;;;5087461;28;20365;-77
2022/10/31 06:23:09;;;;;;;16.55;4.60;;;;;;;;;;5082349;28;20490;-77
2022/10/31 06:25:35;;;;;;;20.75;5.30;;;;;;;;;;5080086;28;20063;-77
2022/10/31 06:28:01;;;;;;;16.70;4.72;;;;;;;;;;5083860;28;20418;-77
2022/10/31 06:30:27;;;;;;;11.88;4.38;;;;;;;;;;5079251;28;20063;-77
2022/10/31 06:32:53;;;;;;;15.45;4.68;;;;;;;;;;5077160;28;20028;-77
2022/10/31 06:35:19;;;;;;;12.05;4.55;;;;;;;;;;5098676;28;20377;-77
2022/10/31 06:37:54;;;;;;;16.13;5.97;;;;;;;;;;5081263;28;20399;-77
2022/10/31 06:40:21;;;;;;;17.52;4.55;;;;;;;;;;5096424;28;20043;-77
2022/10/31 06:42:47;;;;;;;16.13;4.63;;;;;;;;;;5090727;28;20489;-77
2022/10/31 06:45:13;;;;;;;10.23;4.05;;;;;;;;;;5083069;28;20043;-77
2022/10/31 06:47:39;;;;;;;16.67;4.00;;;;;;;;;;5087824;28;20028;-77
2022/10/31 06:50:05;;;;;;;18.30;3.92;;;;;;;;;;5087467;28;20078;-77
2022/10/31 06:52:31;;;;;;;16.13;4.47;;;;;;;;;;5087123;28;20058;-77
2022/10/31 06:54:57;;;;;;;14.38;4.78;;;;;;;;;;5103175;28;20047;-77
2022/10/31 06:57:23;;;;;;;18.45;4.90;;;;;;;;;;5084607;28;20028;-77
2022/10/31 06:59:49;;;;;;;15.95;4.78;;;;;;;;;;5074883;28;20424;-77
2022/10/31 07:02:15;;;;;;;20.73;7.45;;;;;;;;;;5087506;28;20042;-77
2022/10/31 07:04:41;;;;;;;20.35;6.28;;;;;;;;;;5075994;28;20545;-77
2022/10/31 07:07:07;;;;;;;17.42;6.28;;;;;;;;;;5093841;28;20035;-77
2022/10/31 07:09:33;;;;;;;14.65;5.60;;;;;;;;;;5090384;28;20028;-77
2022/10/31 07:11:59;;;;;;;16.50;5.75;;;;;;;;;;5084086;28;20071;-77
2022/10/31 07:14:25;;;;;;;16.58;6.07;;;;;;;;;;5082295;28;20381;-77
2022/10/31 07:16:51;;;;;;;22.08;6.30;;;;;;;;;;5082072;28;20032;-77
2022/10/31 07:19:17;;;;;;;23.10;6.80;;;;;;;;;;5080920;28;20024;-77
2022/10/31 07:21:43;;;;;;;18.10;6.07;;;;;;;;;;5083884;28;20035;-77
2022/10/31 07:24:09;;;;;;;17.50;5.80;;;;;;;;;;5080162;28;20024;-77
2022/10/31 07:26:35;;;;;;;20.27;6.32;;;;;;;;;;5076075;28;20044;-77
2022/10/31 07:29:02;;;;;;;19.02;6.00;;;;;;;;;;5082917;28;20070;-77
2022/10/31 07:31:28;;;;;;;14.30;5.28;;;;;;;;;;5092046;28;20051;-77
2022/10/31 07:33:54;;;;;;;17.85;6.03;;;;;;;;;;5089283;28;20029;-77
2022/10/31 07:36:20;;;;;;;18.95;5.50;;;;;;;;;;5086368;28;20032;-78
2022/10/31 07:38:46;;;;;;;16.88;6.00;;;;;;;;;;5089577;28;20044;-77
2022/10/31 07:41:12;;;;;;;19.98;6.22;;;;;;;;;;5081170;28;20032;-77
2022/10/31 07:43:38;;;;;;;11.45;4.82;;;;;;;;;;5085449;28;20028;-77
2022/10/31 07:46:04;;;;;;;17.63;6.78;;;;;;;;;;5084674;28;20440;-77
2022/10/31 07:48:30;;;;;;;23.98;9.13;;;;;;;;;;5091902;28;20029;-78
2022/10/31 07:50:56;;;;;;;24.60;7.63;;;;;;;;;;5076503;28;20374;-78
2022/10/31 07:53:22;;;;;;;22.40;6.45;;;;;;;;;;5083071;28;20060;-77
2022/10/31 07:55:48;;;;;;;16.98;6.03;;;;;;;;;;5086960;28;20445;-77
2022/10/31 07:58:15;;;;;;;15.25;5.78;;;;;;;;;;5089228;28;20036;-77
2022/10/31 08:00:42;;;;;;;17.63;5.78;;;;;;;;;;5077504;28;20485;-78
2022/10/31 08:03:10;;;;;;;16.13;6.05;;;;;;;;;;5085654;28;20079;-77
2022/10/31 08:05:36;;;;;;;21.25;7.25;;;;;;;;;;5081200;28;20032;-77
2022/10/31 08:08:03;;;;;;;16.85;5.88;;;;;;;;;;5083421;28;20228;-77
2022/10/31 08:10:29;;;;;;;20.35;4.93;;;;;;;;;;5088598;28;20047;-77
2022/10/31 08:12:56;;;;;;;14.27;6.60;;;;;;;;;;5088782;28;20028;-78
2022/10/31 08:15:22;;;;;;;19.45;7.10;;;;;;;;;;5081902;28;20099;-77
2022/10/31 08:17:48;;;;;;;14.15;6.25;;;;;;;;;;5084349;28;20151;-78
2022/10/31 08:20:14;;;;;;;19.30;5.63;;;;;;;;;;5087243;28;20067;-77
2022/10/31 08:22:40;;;;;;;15.70;5.03;;;;;;;;;;5083226;28;20039;-78
2022/10/31 08:25:06;;;;;;;16.08;5.40;;;;;;;;;;5090494;28;20052;-77
2022/10/31 08:27:32;;;;;;;15.93;4.38;;;;;;;;;;5081857;28;20123;-78
2022/10/31 08:29:58;;;;;;;13.82;3.22;;;;;;;;;;5079637;28;20096;-78
2022/10/31 08:32:24;;;;;;;11.63;4.47;;;;;;;;;;5081751;28;20693;-78
2022/10/31 08:34:50;;;;;;;15.73;4.72;;;;;;;;;;5082572;28;20035;-78
2022/10/31 08:37:19;;;;;;;14.05;4.00;;;;;;;;;;5076752;28;20036;-77
2022/10/31 08:39:48;;;;;;;16.38;4.10;;;;;;;;;;5106465;28;20772;-78
2022/10/31 08:42:15;;;;;;;13.90;3.97;;;;;;;;;;5091145;28;20104;-78
2022/10/31 08:44:41;;;;;;;16.58;4.07;;;;;;;;;;5091533;28;20027;-77
2022/10/31 08:47:07;;;;;;;13.15;3.35;;;;;;;;;;5080107;28;20465;-78
2022/10/31 08:49:33;;;;;;;11.55;3.03;;;;;;;;;;5091181;28;20024;-78
2022/10/31 08:51:59;;;;;;;11.68;2.38;;;;;;;;;;5082640;28;20043;-78
2022/10/31 08:54:25;;;;;;;10.38;2.05;;;;;;;;;;5102267;28;21489;-78
2022/10/31 08:56:54;;;;;;;10.35;2.25;;;;;;;;;;5078690;28;20033;-78
2022/10/31 08:59:20;;;;;;;13.07;2.88;;;;;;;;;;5081078;28;20031;-78
2022/10/31 09:01:46;;;;;;;15.10;3.55;;;;;;;;;;5099995;28;20042;-78
2022/10/31 09:04:12;;;;;;;12.50;2.75;;;;;;;;;;5103755;28;20031;-78
2022/10/31 09:06:38;;;;;;;17.10;2.95;;;;;;;;;;5088780;28;20040;-78
2022/10/31 09:09:04;;;;;;;10.68;2.60;;;;;;;;;;5094556;28;20495;-78
2022/10/31 09:11:31;;;;;;;8.52;2.72;;;;;;;;;;5084014;28;20032;-78
2022/10/31 09:13:57;;;;;;;10.52;4.22;;;;;;;;;;5090529;28;20079;-78
2022/10/31 09:16:23;;;;;;;10.30;2.00;;;;;;;;;;5082400;28;20388;-78
2022/10/31 09:18:49;;;;;;;12.20;2.80;;;;;;;;;;5088769;28;20036;-78
2022/10/31 09:21:15;;;;;;;10.43;2.97;;;;;;;;;;5077227;28;20478;-78
2022/10/31 09:23:41;;;;;;;9.70;2.85;;;;;;;;;;5082713;28;20025;-78
2022/10/31 09:26:07;;;;;;;11.82;2.83;;;;;;;;;;5082245;28;20044;-78
2022/10/31 09:28:33;;;;;;;14.07;2.67;;;;;;;;;;5082038;28;20046;-78
2022/10/31 09:30:59;;;;;;;14.82;2.60;;;;;;;;;;5078986;28;20077;-78
2022/10/31 09:33:25;;;;;;;6.93;2.30;;;;;;;;;;5075628;28;20024;-78
2022/10/31 09:35:52;;;;;;;11.52;2.80;;;;;;;;;;5087344;28;20516;-78
2022/10/31 09:38:19;;;;;;;11.57;2.65;;;;;;;;;;5084255;28;20036;-78
2022/10/31 09:40:45;;;;;;;13.25;2.58;;;;;;;;;;5087105;28;20461;-78
2022/10/31 09:43:23;;;;;;;13.13;2.70;;;;;;;;;;5087988;28;20042;-78
2022/10/31 09:45:55;;;;;;;14.57;2.80;;;;;;;;;;5084941;28;20102;-78
2022/10/31 09:48:45;;;;;;;7.22;2.40;;;;;;;;;;5083641;28;20355;-78
2022/10/31 09:51:19;;;;;;;15.52;2.45;;;;;;;;;;5083881;28;20499;-78
2022/10/31 09:53:48;;;;;;;13.27;2.50;;;;;;;;;;5079243;28;20043;-78
2022/10/31 09:56:16;;;;;;;8.75;2.47;;;;;;;;;;5078757;28;20040;-78
2022/10/31 09:58:44;;;;;;;8.70;2.65;;;;;;;;;;5075261;28;20035;-78
2022/10/31 10:01:17;;;;;;;8.70;2.45;;;;;;;;;;5083356;28;20050;-78
2022/10/31 10:03:44;;;;;;;9.60;2.42;;;;;;;;;;5079202;28;20377;-78
2022/10/31 10:06:15;;;;;;;9.63;2.17;;;;;;;;;;5089433;28;20029;-78
2022/10/31 10:08:41;;;;;;;9.32;2.35;;;;;;;;;;5077206;28;20030;-78
2022/10/31 10:11:13;;;;;;;9.55;2.05;;;;;;;;;;5081622;28;20028;-78
2022/10/31 10:13:39;;;;;;;8.32;2.03;;;;;;;;;;5077219;28;20506;-78
2022/10/31 10:16:17;;;;;;;14.98;3.22;;;;;;;;;;5080603;28;20102;-78
2022/10/31 10:18:55;;;;;;;11.55;2.85;;;;;;;;;;5076313;28;20059;-78
2022/10/31 10:21:42;;;;;;;10.40;2.75;;;;;;;;;;5086554;28;20788;-78
2022/10/31 10:24:10;;;;;;;11.23;2.67;;;;;;;;;;5077384;28;20077;-78
2022/10/31 10:26:38;;;;;;;11.55;2.58;;;;;;;;;;5080016;28;20049;-78
2022/10/31 10:29:10;;;;;;;13.57;2.80;;;;;;;;;;5088097;28;20548;-78
2022/10/31 10:31:39;;;;;;;13.45;2.65;;;;;;;;;;5100841;28;20024;-78
2022/10/31 10:34:10;;;;;;;14.25;4.97;;;;;;;;;;5081386;28;20041;-78
2022/10/31 10:36:45;;;;;;;10.68;4.82;;;;;;;;;;5080481;28;20046;-78
2022/10/31 10:39:20;;;;;;;11.57;4.07;;;;;;;;;;5093615;28;20039;-78
2022/10/31 10:43:18;;;;;;;12.15;2.78;;;;;;;;;;5081470;28;20032;-78
2022/10/31 10:47:38;;;;;;;8.32;2.20;;;;;;;;;;5079927;28;20044;-78
2022/10/31 10:50:10;;;;;;;7.32;1.85;;;;;;;;;;5077098;28;20362;-78
2022/10/31 10:52:44;;;;;;;13.15;2.38;;;;;;;;;;5080900;28;20033;-78
2022/10/31 10:55:16;;;;;;;10.73;1.83;;;;;;;;;;5088506;28;20071;-78
2022/10/31 10:57:42;;;;;;;;;;;;;;;;;;5082102;28;20020;-78
2022/10/31 11:00:16;;;;;;;12.02;2.13;;;;;;;;;;5076889;28;19912;-78
2022/10/31 11:02:43;;;;;;;13.13;2.38;;;;;;;;;;5083044;28;20024;-78
2022/10/31 11:05:15;;;;;;;8.60;2.63;;;;;;;;;;5074745;28;20044;-78
2022/10/31 11:07:41;;;;;;;10.20;2.25;;;;;;;;;;5080935;28;20412;-78
2022/10/31 11:10:13;;;;;;;10.95;1.88;;;;;;;;;;5079420;28;20040;-78
2022/10/31 11:12:40;;;;;;;7.38;2.00;;;;;;;;;;5088666;28;20037;-78
2022/10/31 11:15:18;;;;;;;6.65;2.15;;;;;;;;;;5083096;28;20381;-78
2022/10/31 11:17:47;;;;;;;7.10;2.10;;;;;;;;;;5081518;28;20392;-79
2022/10/31 11:20:13;;;;;;;13.05;2.53;;;;;;;;;;5083589;28;20483;-78
2022/10/31 11:22:49;;;;;;;13.18;2.80;;;;;;;;;;5088645;28;20036;-78
2022/10/31 11:25:21;;;;;;;11.85;2.35;;;;;;;;;;5078086;28;20059;-78
2022/10/31 11:27:47;;;;;;;10.32;2.03;;;;;;;;;;5083977;28;20117;-78
2022/10/31 11:30:14;;;;;;;11.40;2.60;;;;;;;;;;5077548;28;20029;-78
2022/10/31 11:32:48;;;;;;;10.23;1.80;;;;;;;;;;5087141;28;20481;-78
2022/10/31 11:35:18;;;;;;;10.05;2.30;;;;;;;;;;5082708;28;20035;-78
2022/10/31 11:37:44;;;;;;;9.20;1.83;;;;;;;;;;5084549;28;20032;-78
2022/10/31 11:40:18;;;;;;;13.05;1.63;;;;;;;;;;5082425;28;20035;-78
2022/10/31 11:42:44;;;;;;;8.65;2.40;;;;;;;;;;5079048;28;20086;-78
2022/10/31 11:45:16;;;;;;;15.60;2.70;;;;;;;;;;5081869;28;20047;-79
2022/10/31 11:47:42;;;;;;;;;;;;;;;;;;5086318;28;20064;-78
2022/10/31 11:50:18;;;;;;;11.73;2.50;;;;;;;;;;5082200;28;19955;-78
2022/10/31 11:52:45;;;;;;;6.60;1.77;;;;;;;;;;5084259;28;20848;-78
2022/10/31 11:55:11;;;;;;;13.32;3.03;;;;;;;;;;5080377;28;20028;-78
2022/10/31 11:57:47;;;;;;;9.00;1.90;;;;;;;;;;5085865;28;20035;-78
2022/10/31 12:00:21;;;;;;;9.30;2.15;;;;;;;;;;5079529;28;20044;-78
2022/10/31 12:02:47;;;;;;;9.45;2.15;;;;;;;;;;5083768;28;20056;-78
2022/10/31 12:05:25;;;;;;;14.23;2.20;;;;;;;;;;5087269;28;20078;-78
2022/10/31 12:07:52;;;;;;;10.38;2.65;;;;;;;;;;5098654;28;20032;-78
2022/10/31 12:10:21;;;;;;;13.57;2.08;;;;;;;;;;5080728;28;20635;-78
2022/10/31 12:12:47;;;;;;;11.20;2.10;;;;;;;;;;5095565;28;20028;-78
2022/10/31 12:15:19;;;;;;;9.50;2.10;;;;;;;;;;5086906;28;20381;-78
2022/10/31 12:18:04;;;;;;;9.30;1.90;;;;;;;;;;5088551;28;20032;-78
2022/10/31 12:20:30;;;;;;;11.02;1.73;;;;;;;;;;5079616;28;20033;-78
2022/10/31 12:23:15;;;;;;;9.73;2.22;;;;;;;;;;5090801;28;20547;-78
2022/10/31 12:25:43;;;;;;;8.13;1.73;;;;;;;;;;5083858;28;20464;-78
2022/10/31 12:28:12;;;;;;;10.38;2.15;;;;;;;;;;5090844;28;20036;-78
2022/10/31 12:30:47;;;;;;;7.82;1.90;;;;;;;;;;5084375;28;20036;-78
2022/10/31 12:33:22;;;;;;;10.75;2.15;;;;;;;;;;5088250;28;20027;-78
2022/10/31 12:35:56;;;;;;;11.77;2.60;;;;;;;;;;5082411;28;20104;-78
2022/10/31 12:38:22;;;;;;;10.32;2.30;;;;;;;;;;5083795;28;20073;-78
2022/10/31 12:41:01;;;;;;;10.80;2.33;;;;;;;;;;5088948;28;20462;-78
2022/10/31 12:43:29;;;;;;;9.77;2.33;;;;;;;;;;5088608;28;20062;-78
2022/10/31 12:45:56;;;;;;;11.00;2.10;;;;;;;;;;5075985;28;20029;-78
2022/10/31 12:48:41;;;;;;;10.27;2.10;;;;;;;;;;5078087;28;20075;-78
2022/10/31 12:51:10;;;;;;;11.48;2.75;;;;;;;;;;5083541;28;20135;-78
2022/10/31 12:53:47;;;;;;;11.70;2.45;;;;;;;;;;5083784;28;20040;-78
2022/10/31 12:56:31;;;;;;;8.82;1.88;;;;;;;;;;5090967;28;20028;-78
2022/10/31 12:59:08;;;;;;;12.20;2.00;;;;;;;;;;5088910;28;20068;-78
2022/10/31 13:01:46;;;;;;;10.00;2.53;;;;;;;;;;5090109;28;20759;-78
2022/10/31 13:04:17;;;;;;;8.25;2.17;;;;;;;;;;5095932;28;20127;-78
2022/10/31 13:06:48;;;;;;;11.23;2.17;;;;;;;;;;5079024;28;20041;-78
2022/10/31 13:09:23;;;;;;;10.55;2.97;;;;;;;;;;5079614;28;20039;-78
2022/10/31 13:11:52;;;;;;;9.20;2.75;;;;;;;;;;5092272;28;20987;-78
2022/10/31 13:14:26;;;;;;;7.75;1.98;;;;;;;;;;5089063;28;20032;-78
2022/10/31 13:16:52;;;;;;;14.57;2.78;;;;;;;;;;5080806;28;20482;-78
2022/10/31 13:19:18;;;;;;;7.65;2.08;;;;;;;;;;5089099;28;20024;-78
2022/10/31 13:21:56;;;;;;;12.07;2.97;;;;;;;;;;5093608;28;20814;-78
2022/10/31 13:24:27;;;;;;;10.13;2.35;;;;;;;;;;5082500;28;20040;-78
2022/10/31 13:26:55;;;;;;;12.40;3.17;;;;;;;;;;5083710;28;20049;-78
2022/10/31 13:29:25;;;;;;;10.40;2.90;;;;;;;;;;5078388;28;20043;-78
2022/10/31 13:31:51;;;;;;;7.93;2.50;;;;;;;;;;5090867;28;20024;-78
2022/10/31 13:34:23;;;;;;;15.32;2.97;;;;;;;;;;5087640;28;20024;-78
2022/10/31 13:36:54;;;;;;;10.27;2.92;;;;;;;;;;5083291;28;20040;-78
2022/10/31 13:39:36;;;;;;;11.82;2.65;;;;;;;;;;5094904;28;20047;-78
2022/10/31 13:42:08;;;;;;;12.37;4.17;;;;;;;;;;5075255;28;20116;-78
2022/10/31 13:44:38;;;;;;;14.20;3.00;;;;;;;;;;5076991;28;20834;-78
2022/10/31 13:47:20;;;;;;;10.25;3.47;;;;;;;;;;5081195;28;20046;-78
2022/10/31 13:49:46;;;;;;;18.75;3.97;;;;;;;;;;5086918;28;20099;-78
2022/10/31 13:52:12;;;;;;;9.18;2.35;;;;;;;;;;5094479;28;20107;-78
2022/10/31 13:54:39;;;;;;;12.45;2.50;;;;;;;;;;5080000;28;20024;-78
2022/10/31 13:57:17;;;;;;;8.75;2.10;;;;;;;;;;5083667;28;20079;-78
2022/10/31 13:59:48;;;;;;;9.73;2.50;;;;;;;;;;5076840;28;20417;-78
2022/10/31 14:02:16;;;;;;;10.93;3.33;;;;;;;;;;5081267;28;20119;-78
2022/10/31 14:04:47;;;;;;;21.52;4.82;;;;;;;;;;5085161;28;20073;-78
2022/10/31 14:07:21;;;;;;;9.80;3.53;;;;;;;;;;5081282;28;20033;-78
2022/10/31 14:09:56;;;;;;;15.30;3.72;;;;;;;;;;5078280;28;20841;-78
2022/10/31 14:12:25;;;;;;;10.38;3.72;;;;;;;;;;5077102;28;20024;-78
2022/10/31 14:14:55;;;;;;;14.20;3.83;;;;;;;;;;5085545;28;20025;-78
2022/10/31 14:17:23;;;;;;;12.23;2.92;;;;;;;;;;5083012;28;20085;-78
2022/10/31 14:20:20;;;;;;;8.30;2.72;;;;;;;;;;5073665;28;20119;-78
2022/10/31 14:22:46;;;;;;;9.57;3.17;;;;;;;;;;5082694;28;20044;-78
2022/10/31 14:25:29;;;;;;;10.95;3.75;;;;;;;;;;5077454;28;20048;-78
2022/10/31 14:27:55;;;;;;;13.27;3.63;;;;;;;;;;5074199;28;20044;-78
2022/10/31 14:30:22;;;;;;;18.38;4.50;;;;;;;;;;5083103;28;20020;-78
2022/10/31 14:32:53;;;;;;;14.57;5.38;;;;;;;;;;5088058;28;20047;-78
2022/10/31 14:35:20;;;;;;;15.48;5.03;;;;;;;;;;5090409;28;20059;-78
2022/10/31 14:38:05;;;;;;;10.80;4.20;;;;;;;;;;5088153;28;20101;-78
2022/10/31 14:40:31;;;;;;;13.98;3.90;;;;;;;;;;5089809;28;20107;-78
2022/10/31 14:43:00;;;;;;;15.55;3.95;;;;;;;;;;5071569;28;20044;-78
2022/10/31 14:45:29;;;;;;;11.18;4.05;;;;;;;;;;5084764;28;20027;-78